Flight Track Log - Related Links

Times and Time Zones

All times are in EDT time to prevent confusion due to time zone crossing. See the UAL1421 flight status page for this flight to view local times or setup timezone preferences in your user account.

Time Position Orientation Groundspeed Altitude Reporting Facility
EDT Latitude Longitude Course Direction KTS MPH feet Rate Location/Type
Tue 08:16:06 PM 29.9572 -95.3392 143° Southeast 201 231 800  Level Houston Center
Tue 08:16:12 PM 29.9525 -95.3350 143° Southeast 195 224 1,100 1,881 Climbing Houston Center
Tue 08:17:13 PM 29.9200 -95.2786 124° Southeast 242 278 2,900 1,914 Climbing Houston Center
Tue 08:18:08 PM 29.8908 -95.2233 121° Southeast 241 277 4,800 2,323 Climbing Houston Center
Tue 08:18:15 PM 29.8822 -95.2108 128° Southeast 266 306 5,300 2,710 Climbing Houston Center
Tue 08:19:10 PM 29.8472 -95.1475 122° Southeast 279 321 7,600 2,806 Climbing Houston Center
Tue 08:19:17 PM 29.8375 -95.1344 131° Southeast 284 327 8,200 2,597 Climbing Houston Center
Tue 08:20:17 PM 29.7672 -95.0806 146° Southeast 299 344 10,500 1,603 Climbing Houston Center
Tue 08:21:13 PM 29.7022 -95.0508 158° South 318 366 11,300 1,576 Climbing Houston Center
Tue 08:22:15 PM 29.6050 -95.0106 160° South 357 411 13,600 2,098 Climbing Houston Center
Tue 08:23:16 PM 29.5044 -94.9672 159° South 377 434 15,600 1,951 Climbing Houston Center
Tue 08:24:18 PM 29.4014 -94.9233 160° South 389 448 17,600 1,854 Climbing Houston Center
Tue 08:25:19 PM 29.2961 -94.8778 159° South 401 461 19,400 1,902 Climbing Houston Center
Tue 08:26:21 PM 29.1817 -94.7842 144° Southeast 421 484 21,500 1,694 Climbing Houston Center
Tue 08:27:23 PM 29.0844 -94.7028 144° Southeast 430 495 22,900 1,317 Climbing Houston Center
Tue 08:28:24 PM 28.9850 -94.6197 144° Southeast 441 507 24,200 1,317 Climbing Houston Center
Tue 08:29:26 PM 28.8828 -94.5356 144° Southeast 451 519 25,600 1,258 Climbing Houston Center
Tue 08:30:28 PM 28.7797 -94.4486 144° Southeast 458 527 26,800 1,073 Climbing Houston Center
Tue 08:31:29 PM 28.6750 -94.3608 144° Southeast 468 539 27,800 1,024 Climbing Houston Center
Tue 08:32:31 PM 28.5667 -94.2722 144° Southeast 477 549 28,900 1,065 Climbing Houston Center
Tue 08:33:33 PM 28.4361 -94.1656 144° Southeast 481 554 30,000 1,190 Climbing Houston Center
Tue 08:34:37 PM 28.3269 -94.0733 143° Southeast 488 562 31,400 1,220 Climbing Houston Center
Tue 08:35:36 PM 28.2203 -93.9861 144° Southeast 477 549 32,500 1,100 Climbing Houston Center
Tue 08:36:37 PM 28.1131 -93.8981 144° Southeast 476 548 33,600 968 Climbing Houston Center
Tue 08:37:40 PM 28.0064 -93.8111 144° Southeast 471 542 34,500 919 Climbing Houston Center
Tue 08:38:41 PM 27.8994 -93.7253 145° Southeast 472 543 35,500 934 Climbing Houston Center
Tue 08:39:42 PM 27.7944 -93.6403 144° Southeast 466 536 36,400 732 Climbing Houston Center
Tue 08:40:44 PM 27.6919 -93.5539 143° Southeast 462 532 37,000 293 Climbing Houston Center
Tue 08:41:45 PM 27.5656 -93.4533 145° Southeast 463 533 37,000  Level Houston Center
Tue 08:42:47 PM 27.4611 -93.3672 144° Southeast 463 533 37,000  Level Houston Center
Tue 08:43:48 PM 27.3564 -93.2833 145° Southeast 462 532 37,000  Level Houston Center
Tue 08:44:51 PM 27.2506 -93.2003 145° Southeast 463 533 37,000  Level Houston Center
Tue 08:45:51 PM 27.1333 -93.1061 144° Southeast 465 535 37,000  Level Houston Center
Tue 08:46:53 PM 27.0400 -93.0294 144° Southeast 468 539 37,000  Level Houston Center
Tue 08:47:57 PM 26.9217 -92.9347 144° Southeast 469 540 37,000 -49 Level Houston Center
Tue 08:48:56 PM 26.8147 -92.8533 146° Southeast 468 539 36,900  Descending Houston Center
Tue 08:49:57 PM 26.7042 -92.7756 148° Southeast 469 540 37,000 98 Climbing Houston Center
Tue 08:51:00 PM 26.5959 -92.7035 149° Southeast  Level FlightAware Approximate
Tue 08:58:00 PM 25.8733 -92.2262 149° Southeast  Level FlightAware Approximate
Tue 08:59:00 PM 25.7701 -92.1584 149° Southeast  Level FlightAware Approximate
Tue 09:00:00 PM 25.6668 -92.0905 149° Southeast  Level FlightAware Approximate
Tue 09:01:00 PM 25.5635 -92.0228 149° Southeast  Level FlightAware Approximate
Tue 09:02:00 PM 25.4602 -91.9552 149° Southeast  Level FlightAware Approximate
Tue 09:03:00 PM 25.3568 -91.8877 149° Southeast  Level FlightAware Approximate
Tue 09:04:00 PM 25.2535 -91.8204 149° Southeast  Level FlightAware Approximate
Tue 09:05:00 PM 25.1501 -91.7531 150° Southeast  Level FlightAware Approximate
Tue 09:06:00 PM 25.0466 -91.6860 150° Southeast  Level FlightAware Approximate
Tue 09:07:00 PM 24.9431 -91.6189 150° Southeast  Level FlightAware Approximate
Tue 09:08:00 PM 24.8396 -91.5520 150° Southeast  Level FlightAware Approximate
Tue 09:09:00 PM 24.7361 -91.4852 150° Southeast  Level FlightAware Approximate
Tue 09:10:00 PM 24.6326 -91.4185 150° Southeast  Level FlightAware Approximate
Tue 09:11:00 PM 24.5290 -91.3519 150° Southeast  Level FlightAware Approximate
Tue 09:12:00 PM 24.4209 -91.2950 156° South  Level FlightAware Approximate
Tue 09:13:00 PM 24.3112 -91.2417 156° South  Level FlightAware Approximate
Tue 09:14:00 PM 24.2014 -91.1886 156° South  Level FlightAware Approximate
Tue 09:15:00 PM 24.0916 -91.1356 156° South  Level FlightAware Approximate
Tue 09:16:00 PM 23.9818 -91.0827 156° South  Level FlightAware Approximate
Tue 09:17:00 PM 23.8720 -91.0298 156° South  Level FlightAware Approximate
Tue 09:18:00 PM 23.7621 -90.9771 156° South  Level FlightAware Approximate
Tue 09:19:00 PM 23.6522 -90.9244 156° South  Level FlightAware Approximate
Tue 09:20:00 PM 23.5424 -90.8718 156° South  Level FlightAware Approximate
Tue 09:21:00 PM 23.4324 -90.8193 156° South  Level FlightAware Approximate
Tue 09:22:00 PM 23.3225 -90.7669 156° South  Level FlightAware Approximate
Tue 09:23:00 PM 23.2126 -90.7146 156° South  Level FlightAware Approximate
Tue 09:24:00 PM 23.1026 -90.6624 156° South  Level FlightAware Approximate
Tue 09:25:00 PM 22.9926 -90.6102 156° South  Level FlightAware Approximate
Tue 09:26:00 PM 22.8827 -90.5582 156° South  Level FlightAware Approximate
Tue 09:27:00 PM 22.7726 -90.5062 156° South  Level FlightAware Approximate
Tue 09:28:00 PM 22.6626 -90.4543 156° South  Level FlightAware Approximate
Tue 09:29:00 PM 22.5526 -90.4025 156° South  Level FlightAware Approximate
Tue 09:30:00 PM 22.4425 -90.3508 157° South  Level FlightAware Approximate
Tue 09:31:00 PM 22.3324 -90.2991 157° South  Level FlightAware Approximate
Tue 09:32:00 PM 22.2223 -90.2476 157° South  Level FlightAware Approximate
Tue 09:33:00 PM 22.1122 -90.1961 157° South  Level FlightAware Approximate
Tue 09:34:00 PM 22.0021 -90.1447 157° South  Level FlightAware Approximate
Tue 09:35:00 PM 21.8920 -90.0934 157° South  Level FlightAware Approximate
Tue 09:36:00 PM 21.7818 -90.0421 157° South  Level FlightAware Approximate
Tue 09:37:00 PM 21.6716 -89.9910 157° South  Level FlightAware Approximate
Tue 09:38:00 PM 21.5615 -89.9399 157° South  Level FlightAware Approximate
Tue 09:39:00 PM 21.4513 -89.8888 157° South  Level FlightAware Approximate
Tue 09:40:00 PM 21.3411 -89.8379 157° South  Level FlightAware Approximate
Tue 09:41:00 PM 21.2309 -89.7870 157° South  Level FlightAware Approximate
Tue 09:42:00 PM 21.1206 -89.7362 157° South  Level FlightAware Approximate
Tue 09:43:00 PM 21.0104 -89.6854 157° South  Level FlightAware Approximate
Tue 09:44:00 PM 20.8997 -89.6358 158° South  Level FlightAware Approximate
Tue 09:45:00 PM 20.7881 -89.5888 158° South  Level FlightAware Approximate
Tue 09:46:00 PM 20.6764 -89.5418 159° South  Level FlightAware Approximate
Tue 09:47:00 PM 20.5639 -89.4972 161° South  Level FlightAware Approximate
Tue 09:48:00 PM 20.4505 -89.4554 161° South  Level FlightAware Approximate
Tue 09:49:00 PM 20.3371 -89.4137 161° South  Level FlightAware Approximate
Tue 09:50:00 PM 20.2255 -89.3669 157° South  Level FlightAware Approximate
Tue 09:51:00 PM 20.1147 -89.3177 157° South  Level FlightAware Approximate
Tue 09:52:00 PM 20.0040 -89.2684 157° South  Level FlightAware Approximate
Tue 09:53:00 PM 19.8916 -89.2238 160° South  Level FlightAware Approximate
Tue 09:54:00 PM 19.7792 -89.1794 160° South  Level FlightAware Approximate
Tue 09:55:00 PM 19.6667 -89.1350 160° South  Level FlightAware Approximate
Tue 09:56:00 PM 19.5542 -89.0907 160° South  Level FlightAware Approximate
Tue 09:57:00 PM 19.4417 -89.0464 160° South  Level FlightAware Approximate
Tue 09:58:00 PM 19.3292 -89.0023 160° South  Level FlightAware Approximate
Tue 09:59:00 PM 19.2167 -88.9581 160° South  Level FlightAware Approximate
Tue 10:00:00 PM 19.1041 -88.9141 160° South  Level FlightAware Approximate
Tue 10:01:00 PM 18.9916 -88.8701 160° South  Level FlightAware Approximate
Tue 10:02:00 PM 18.8790 -88.8261 160° South  Level FlightAware Approximate
Tue 10:03:00 PM 18.7664 -88.7822 160° South  Level FlightAware Approximate
Tue 10:04:00 PM 18.6539 -88.7384 160° South  Level FlightAware Approximate
Tue 10:05:00 PM 18.5413 -88.6946 160° South  Level FlightAware Approximate
Tue 10:06:00 PM 18.4287 -88.6509 160° South  Level FlightAware Approximate
Tue 10:07:00 PM 18.3155 -88.6090 161° South  Level FlightAware Approximate
Tue 10:08:00 PM 18.2019 -88.5684 161° South  Level FlightAware Approximate
Tue 10:09:00 PM 18.0882 -88.5278 161° South  Level FlightAware Approximate
Tue 10:10:00 PM 17.9746 -88.4873 161° South  Level FlightAware Approximate
Tue 10:11:00 PM 17.8623 -88.4430 157° South  Level FlightAware Approximate
Tue 10:12:00 PM 17.7515 -88.3948 157° South  Level FlightAware Approximate
Tue 10:13:00 PM 17.6406 -88.3466 157° South  Level FlightAware Approximate
Tue 10:14:00 PM 17.5295 -88.2992 169° South  Level FlightAware Approximate
Tue 10:15:00 PM 17.4117 -88.2756 169° South  Level FlightAware Approximate
Tue 10:16:00 PM 17.2938 -88.2521 169° South  Level FlightAware Approximate
Tue 10:17:00 PM 17.1760 -88.2285 169° South  Level FlightAware Approximate
Tue 10:18:00 PM 17.0533 -88.2050 170° South  Level FlightAware Approximate
Tue 10:19:00 PM 16.9304 -88.1824 170° South  Level FlightAware Approximate
Tue 10:20:00 PM 16.8076 -88.1598 170° South  Level FlightAware Approximate
Tue 10:21:00 PM 16.6847 -88.1373 170° South  Level FlightAware Approximate
Tue 10:22:00 PM 16.5619 -88.1147 170° South  Level FlightAware Approximate
Tue 10:23:00 PM 16.4391 -88.0922 170° South  Level FlightAware Approximate
Tue 10:24:00 PM 16.3162 -88.0698 170° South  Level FlightAware Approximate
Tue 10:25:00 PM 16.1933 -88.0473 170° South  Level FlightAware Approximate
Tue 10:26:00 PM 16.0707 -88.0239 169° South  Level FlightAware Approximate
Tue 10:27:00 PM 15.9483 -87.9987 169° South  Level FlightAware Approximate
Tue 10:28:00 PM 15.8259 -87.9736 169° South  Level FlightAware Approximate
Tue 10:29:00 PM 15.7036 -87.9485 169° South  Level FlightAware Approximate
Tue 10:30:00 PM 15.5812 -87.9234 169° South  Level FlightAware Approximate
Tue 10:31:00 PM 15.4594 -87.8964 154° Southeast  Level FlightAware Approximate
Tue 10:32:00 PM 15.3471 -87.8402 154° Southeast  Level FlightAware Approximate
Tue 10:33:00 PM 15.2334 -87.7870 157° South  Level FlightAware Approximate
Tue 10:34:00 PM 15.1188 -87.7360 157° South  Level FlightAware Approximate
Tue 10:35:00 PM 15.0042 -87.6851 157° South  Level FlightAware Approximate
Tue 10:36:00 PM 14.8896 -87.6342 157° South  Level FlightAware Approximate
Tue 10:37:00 PM 14.7760 -87.5809 155° Southeast  Level FlightAware Approximate
Tue 10:38:00 PM 14.6629 -87.5265 155° Southeast  Level FlightAware Approximate
Tue 10:39:00 PM 14.5499 -87.4720 155° Southeast  Level FlightAware Approximate
Tue 10:40:00 PM 14.4368 -87.4177 155° Southeast  Level FlightAware Approximate
Tue 10:41:00 PM 14.3267 -87.3582 161° South  Level FlightAware Approximate
Tue 10:42:00 PM 14.2091 -87.3154 161° South  Level FlightAware Approximate
Tue 10:43:00 PM 14.0965 -87.2610 152° Southeast  Level FlightAware Approximate
Tue 10:44:00 PM 13.9828 -87.2209 187° South  Level FlightAware Approximate
Tue 10:45:00 PM 13.8590 -87.2364 187° South  Level FlightAware Approximate
Tue 10:46:00 PM 13.7351 -87.2500 180° South  Level FlightAware Approximate
Tue 10:47:00 PM 13.6119 -87.2637 194° South  Level FlightAware Approximate
Tue 10:48:00 PM 13.5174 -87.1886 145° Southeast  Level FlightAware Approximate
Tue 10:49:00 PM 13.4149 -87.1154 145° Southeast  Level FlightAware Approximate
Tue 10:50:00 PM 13.3125 -87.0422 145° Southeast  Level FlightAware Approximate
Tue 10:51:00 PM 13.2101 -86.9691 145° Southeast  Level FlightAware Approximate
Tue 10:52:00 PM 13.1102 -86.8925 143° Southeast  Level FlightAware Approximate
Tue 10:53:00 PM 13.0111 -86.8146 143° Southeast  Level FlightAware Approximate
Tue 10:54:00 PM 12.9110 -86.7383 145° Southeast  Level FlightAware Approximate
Tue 10:55:00 PM 12.8093 -86.6643 145° Southeast  Level FlightAware Approximate
Tue 10:56:00 PM 12.7081 -86.5894 144° Southeast  Level FlightAware Approximate
Tue 10:57:00 PM 12.6072 -86.5143 145° Southeast  Level FlightAware Approximate
Tue 10:58:00 PM 12.5055 -86.4403 145° Southeast  Level FlightAware Approximate
Tue 10:59:00 PM 12.4043 -86.3657 144° Southeast  Level FlightAware Approximate
Tue 11:00:00 PM 12.3051 -86.2885 136° Southeast  Level FlightAware Approximate
Tue 11:01:00 PM 12.2039 -86.2154 144° Southeast  Level FlightAware Approximate

Login

Don't have an account? Register now (free) for customized features, flight alerts, and more!